sensor_id;sensor_type;location;lat;lon;timestamp;P1;durP1;ratioP1;P2;durP2;ratioP2
78787;SDS011;68131;52.508;5.502;2023-08-17T00:00:50;7.40;;;1.13;;
78787;SDS011;68131;52.508;5.502;2023-08-17T00:03:20;0.75;;;0.75;;
78787;SDS011;68131;52.508;5.502;2023-08-17T00:05:49;1.95;;;0.77;;
78787;SDS011;68131;52.508;5.502;2023-08-17T00:08:21;0.85;;;0.70;;
78787;SDS011;68131;52.508;5.502;2023-08-17T00:10:50;0.93;;;0.55;;
78787;SDS011;68131;52.508;5.502;2023-08-17T00:13:19;3.05;;;1.10;;
78787;SDS011;68131;52.508;5.502;2023-08-17T00:15:48;0.68;;;0.40;;
78787;SDS011;68131;52.508;5.502;2023-08-17T00:18:18;2.10;;;0.65;;
78787;SDS011;68131;52.508;5.502;2023-08-17T00:20:47;1.38;;;1.10;;
78787;SDS011;68131;52.508;5.502;2023-08-17T00:23:16;5.10;;;1.23;;
78787;SDS011;68131;52.508;5.502;2023-08-17T00:25:48;0.75;;;0.57;;
78787;SDS011;68131;52.508;5.502;2023-08-17T00:28:18;1.45;;;0.55;;
78787;SDS011;68131;52.508;5.502;2023-08-17T00:30:47;1.83;;;1.23;;
78787;SDS011;68131;52.508;5.502;2023-08-17T00:33:16;1.27;;;0.90;;
78787;SDS011;68131;52.508;5.502;2023-08-17T00:35:46;0.82;;;0.70;;
78787;SDS011;68131;52.508;5.502;2023-08-17T00:38:15;0.32;;;0.32;;
78787;SDS011;68131;52.508;5.502;2023-08-17T00:40:44;1.13;;;1.02;;
78787;SDS011;68131;52.508;5.502;2023-08-17T00:43:18;0.80;;;0.80;;
78787;SDS011;68131;52.508;5.502;2023-08-17T00:45:48;0.98;;;0.80;;
78787;SDS011;68131;52.508;5.502;2023-08-17T00:48:17;1.17;;;0.80;;
78787;SDS011;68131;52.508;5.502;2023-08-17T00:50:47;1.10;;;0.90;;
78787;SDS011;68131;52.508;5.502;2023-08-17T00:53:18;0.43;;;0.43;;
78787;SDS011;68131;52.508;5.502;2023-08-17T00:55:50;1.52;;;0.70;;
78787;SDS011;68131;52.508;5.502;2023-08-17T00:58:23;1.10;;;0.82;;
78787;SDS011;68131;52.508;5.502;2023-08-17T01:00:52;1.45;;;1.35;;
78787;SDS011;68131;52.508;5.502;2023-08-17T01:03:22;1.48;;;1.30;;
78787;SDS011;68131;52.508;5.502;2023-08-17T01:05:52;0.60;;;0.32;;
78787;SDS011;68131;52.508;5.502;2023-08-17T01:08:23;0.70;;;0.57;;
78787;SDS011;68131;52.508;5.502;2023-08-17T01:10:59;0.73;;;0.38;;
78787;SDS011;68131;52.508;5.502;2023-08-17T01:13:39;0.60;;;0.60;;
78787;SDS011;68131;52.508;5.502;2023-08-17T01:16:21;3.08;;;0.70;;
78787;SDS011;68131;52.508;5.502;2023-08-17T01:18:54;1.30;;;1.10;;
78787;SDS011;68131;52.508;5.502;2023-08-17T01:21:28;1.05;;;0.70;;
78787;SDS011;68131;52.508;5.502;2023-08-17T01:24:09;2.10;;;0.70;;
78787;SDS011;68131;52.508;5.502;2023-08-17T01:26:40;0.98;;;0.55;;
78787;SDS011;68131;52.508;5.502;2023-08-17T01:29:09;0.52;;;0.52;;
78787;SDS011;68131;52.508;5.502;2023-08-17T01:31:40;3.45;;;0.57;;
78787;SDS011;68131;52.508;5.502;2023-08-17T01:34:16;2.05;;;0.70;;
78787;SDS011;68131;52.508;5.502;2023-08-17T01:36:52;1.70;;;0.90;;
78787;SDS011;68131;52.508;5.502;2023-08-17T01:39:30;1.13;;;0.75;;
78787;SDS011;68131;52.508;5.502;2023-08-17T01:42:03;0.50;;;0.50;;
78787;SDS011;68131;52.508;5.502;2023-08-17T01:44:36;1.45;;;0.98;;
78787;SDS011;68131;52.508;5.502;2023-08-17T01:47:06;1.33;;;0.60;;
78787;SDS011;68131;52.508;5.502;2023-08-17T01:49:36;1.73;;;0.90;;
78787;SDS011;68131;52.508;5.502;2023-08-17T01:52:05;0.95;;;0.65;;
78787;SDS011;68131;52.508;5.502;2023-08-17T01:54:37;0.60;;;0.60;;
78787;SDS011;68131;52.508;5.502;2023-08-17T01:57:06;1.60;;;0.70;;
78787;SDS011;68131;52.508;5.502;2023-08-17T01:59:36;3.38;;;0.82;;
78787;SDS011;68131;52.508;5.502;2023-08-17T02:02:05;1.05;;;0.75;;
78787;SDS011;68131;52.508;5.502;2023-08-17T02:04:34;1.52;;;0.70;;
78787;SDS011;68131;52.508;5.502;2023-08-17T02:07:04;0.85;;;0.60;;
78787;SDS011;68131;52.508;5.502;2023-08-17T02:09:33;1.25;;;0.82;;
78787;SDS011;68131;52.508;5.502;2023-08-17T02:12:07;0.52;;;0.43;;
78787;SDS011;68131;52.508;5.502;2023-08-17T02:14:37;0.95;;;0.60;;
78787;SDS011;68131;52.508;5.502;2023-08-17T02:17:06;2.75;;;0.65;;
78787;SDS011;68131;52.508;5.502;2023-08-17T02:19:35;1.52;;;0.82;;
78787;SDS011;68131;52.508;5.502;2023-08-17T02:22:04;1.10;;;0.63;;
78787;SDS011;68131;52.508;5.502;2023-08-17T02:24:34;0.50;;;0.50;;
78787;SDS011;68131;52.508;5.502;2023-08-17T02:27:05;0.98;;;0.75;;
78787;SDS011;68131;52.508;5.502;2023-08-17T02:29:37;0.47;;;0.40;;
78787;SDS011;68131;52.508;5.502;2023-08-17T02:32:08;3.20;;;0.75;;
78787;SDS011;68131;52.508;5.502;2023-08-17T02:34:37;0.60;;;0.60;;
78787;SDS011;68131;52.508;5.502;2023-08-17T02:37:06;0.93;;;0.65;;
78787;SDS011;68131;52.508;5.502;2023-08-17T02:39:35;1.25;;;0.80;;
78787;SDS011;68131;52.508;5.502;2023-08-17T02:42:05;1.65;;;1.10;;
78787;SDS011;68131;52.508;5.502;2023-08-17T02:44:37;0.73;;;0.60;;
78787;SDS011;68131;52.508;5.502;2023-08-17T02:47:06;2.60;;;1.33;;
78787;SDS011;68131;52.508;5.502;2023-08-17T02:49:35;0.65;;;0.60;;
78787;SDS011;68131;52.508;5.502;2023-08-17T02:52:04;0.98;;;0.75;;
78787;SDS011;68131;52.508;5.502;2023-08-17T02:54:34;0.88;;;0.60;;
78787;SDS011;68131;52.508;5.502;2023-08-17T02:57:03;1.02;;;0.88;;
78787;SDS011;68131;52.508;5.502;2023-08-17T02:59:35;2.60;;;0.80;;
78787;SDS011;68131;52.508;5.502;2023-08-17T03:02:06;2.35;;;0.90;;
78787;SDS011;68131;52.508;5.502;2023-08-17T03:04:35;0.70;;;0.70;;
78787;SDS011;68131;52.508;5.502;2023-08-17T03:07:04;0.45;;;0.43;;
78787;SDS011;68131;52.508;5.502;2023-08-17T03:09:34;9.18;;;0.70;;
78787;SDS011;68131;52.508;5.502;2023-08-17T03:12:03;1.55;;;1.13;;
78787;SDS011;68131;52.508;5.502;2023-08-17T03:14:36;3.70;;;0.70;;
78787;SDS011;68131;52.508;5.502;2023-08-17T03:17:05;1.63;;;0.85;;
78787;SDS011;68131;52.508;5.502;2023-08-17T03:19:34;0.85;;;0.75;;
78787;SDS011;68131;52.508;5.502;2023-08-17T03:22:04;1.13;;;0.40;;
78787;SDS011;68131;52.508;5.502;2023-08-17T03:24:33;6.78;;;0.90;;
78787;SDS011;68131;52.508;5.502;2023-08-17T03:27:02;0.60;;;0.60;;
78787;SDS011;68131;52.508;5.502;2023-08-17T03:29:32;0.85;;;0.57;;
78787;SDS011;68131;52.508;5.502;2023-08-17T03:32:06;2.13;;;0.82;;
78787;SDS011;68131;52.508;5.502;2023-08-17T03:34:35;4.53;;;0.88;;
78787;SDS011;68131;52.508;5.502;2023-08-17T03:37:06;1.73;;;0.40;;
78787;SDS011;68131;52.508;5.502;2023-08-17T03:39:35;1.10;;;0.70;;
78787;SDS011;68131;52.508;5.502;2023-08-17T03:42:04;1.30;;;0.80;;
78787;SDS011;68131;52.508;5.502;2023-08-17T03:44:34;2.00;;;0.90;;
78787;SDS011;68131;52.508;5.502;2023-08-17T03:47:07;0.40;;;0.20;;
78787;SDS011;68131;52.508;5.502;2023-08-17T03:49:37;1.75;;;0.70;;
78787;SDS011;68131;52.508;5.502;2023-08-17T03:52:06;0.80;;;0.80;;
78787;SDS011;68131;52.508;5.502;2023-08-17T03:54:35;1.48;;;0.43;;
78787;SDS011;68131;52.508;5.502;2023-08-17T03:57:05;0.98;;;0.90;;
78787;SDS011;68131;52.508;5.502;2023-08-17T03:59:34;1.63;;;1.02;;
78787;SDS011;68131;52.508;5.502;2023-08-17T04:02:03;0.85;;;0.60;;
78787;SDS011;68131;52.508;5.502;2023-08-17T04:04:35;0.63;;;0.63;;
78787;SDS011;68131;52.508;5.502;2023-08-17T04:07:04;0.88;;;0.65;;
78787;SDS011;68131;52.508;5.502;2023-08-17T04:09:34;0.35;;;0.30;;
78787;SDS011;68131;52.508;5.502;2023-08-17T04:12:03;1.88;;;0.95;;
78787;SDS011;68131;52.508;5.502;2023-08-17T04:14:35;0.85;;;0.85;;
78787;SDS011;68131;52.508;5.502;2023-08-17T04:17:07;1.80;;;0.95;;
78787;SDS011;68131;52.508;5.502;2023-08-17T04:19:36;0.77;;;0.57;;
78787;SDS011;68131;52.508;5.502;2023-08-17T04:22:08;3.10;;;0.88;;
78787;SDS011;68131;52.508;5.502;2023-08-17T04:24:37;1.40;;;0.95;;
78787;SDS011;68131;52.508;5.502;2023-08-17T04:27:07;0.80;;;0.57;;
78787;SDS011;68131;52.508;5.502;2023-08-17T04:29:37;1.75;;;0.90;;
78787;SDS011;68131;52.508;5.502;2023-08-17T04:32:13;1.10;;;0.80;;
78787;SDS011;68131;52.508;5.502;2023-08-17T04:34:43;0.35;;;0.35;;
78787;SDS011;68131;52.508;5.502;2023-08-17T04:37:15;3.13;;;1.20;;
78787;SDS011;68131;52.508;5.502;2023-08-17T04:39:44;0.82;;;0.80;;
78787;SDS011;68131;52.508;5.502;2023-08-17T04:42:18;2.42;;;0.98;;
78787;SDS011;68131;52.508;5.502;2023-08-17T04:44:47;0.60;;;0.52;;
78787;SDS011;68131;52.508;5.502;2023-08-17T04:47:19;0.70;;;0.60;;
78787;SDS011;68131;52.508;5.502;2023-08-17T04:49:48;2.85;;;0.98;;
78787;SDS011;68131;52.508;5.502;2023-08-17T04:52:18;0.90;;;0.80;;
78787;SDS011;68131;52.508;5.502;2023-08-17T04:54:47;4.82;;;1.73;;
78787;SDS011;68131;52.508;5.502;2023-08-17T04:57:16;1.58;;;1.38;;
78787;SDS011;68131;52.508;5.502;2023-08-17T04:59:46;4.70;;;1.80;;
78787;SDS011;68131;52.508;5.502;2023-08-17T05:02:19;2.42;;;1.00;;
78787;SDS011;68131;52.508;5.502;2023-08-17T05:04:48;1.73;;;0.88;;
78787;SDS011;68131;52.508;5.502;2023-08-17T05:07:18;2.17;;;1.13;;
78787;SDS011;68131;52.508;5.502;2023-08-17T05:09:47;1.58;;;1.10;;
78787;SDS011;68131;52.508;5.502;2023-08-17T05:12:16;0.60;;;0.57;;
78787;SDS011;68131;52.508;5.502;2023-08-17T05:14:45;1.10;;;0.70;;
78787;SDS011;68131;52.508;5.502;2023-08-17T05:17:15;2.13;;;1.15;;
78787;SDS011;68131;52.508;5.502;2023-08-17T05:19:46;0.43;;;0.22;;
78787;SDS011;68131;52.508;5.502;2023-08-17T05:22:16;1.60;;;1.10;;
78787;SDS011;68131;52.508;5.502;2023-08-17T05:24:45;3.40;;;1.35;;
78787;SDS011;68131;52.508;5.502;2023-08-17T05:27:14;0.70;;;0.65;;
78787;SDS011;68131;52.508;5.502;2023-08-17T05:29:44;2.30;;;0.82;;
78787;SDS011;68131;52.508;5.502;2023-08-17T05:32:13;1.45;;;1.25;;
78787;SDS011;68131;52.508;5.502;2023-08-17T05:34:42;1.00;;;0.95;;
78787;SDS011;68131;52.508;5.502;2023-08-17T05:37:15;1.13;;;0.82;;
78787;SDS011;68131;52.508;5.502;2023-08-17T05:39:44;3.65;;;0.98;;
78787;SDS011;68131;52.508;5.502;2023-08-17T05:42:13;0.50;;;0.50;;
78787;SDS011;68131;52.508;5.502;2023-08-17T05:44:42;0.52;;;0.28;;
78787;SDS011;68131;52.508;5.502;2023-08-17T05:47:12;1.38;;;0.95;;
78787;SDS011;68131;52.508;5.502;2023-08-17T05:49:44;2.50;;;1.05;;
78787;SDS011;68131;52.508;5.502;2023-08-17T05:52:16;0.63;;;0.30;;
78787;SDS011;68131;52.508;5.502;2023-08-17T05:54:46;1.35;;;0.95;;
78787;SDS011;68131;52.508;5.502;2023-08-17T05:57:15;5.55;;;1.67;;
78787;SDS011;68131;52.508;5.502;2023-08-17T05:59:44;1.17;;;0.73;;
78787;SDS011;68131;52.508;5.502;2023-08-17T06:02:13;5.43;;;1.05;;
78787;SDS011;68131;52.508;5.502;2023-08-17T06:04:43;0.85;;;0.50;;
78787;SDS011;68131;52.508;5.502;2023-08-17T06:07:12;1.85;;;0.57;;
78787;SDS011;68131;52.508;5.502;2023-08-17T06:09:43;2.22;;;1.33;;
78787;SDS011;68131;52.508;5.502;2023-08-17T06:12:13;0.85;;;0.75;;
78787;SDS011;68131;52.508;5.502;2023-08-17T06:14:43;3.08;;;0.98;;
78787;SDS011;68131;52.508;5.502;2023-08-17T06:17:12;1.33;;;0.90;;
78787;SDS011;68131;52.508;5.502;2023-08-17T06:19:41;8.43;;;1.05;;
78787;SDS011;68131;52.508;5.502;2023-08-17T06:22:11;0.95;;;0.80;;
78787;SDS011;68131;52.508;5.502;2023-08-17T06:24:40;1.00;;;0.60;;
78787;SDS011;68131;52.508;5.502;2023-08-17T06:27:13;0.98;;;0.35;;
78787;SDS011;68131;52.508;5.502;2023-08-17T06:29:43;1.05;;;0.88;;
78787;SDS011;68131;52.508;5.502;2023-08-17T06:32:12;1.67;;;1.23;;
78787;SDS011;68131;52.508;5.502;2023-08-17T06:34:41;2.05;;;0.60;;
78787;SDS011;68131;52.508;5.502;2023-08-17T06:37:11;1.40;;;0.68;;
78787;SDS011;68131;52.508;5.502;2023-08-17T06:39:40;0.93;;;0.88;;
78787;SDS011;68131;52.508;5.502;2023-08-17T06:42:12;0.85;;;0.60;;
78787;SDS011;68131;52.508;5.502;2023-08-17T06:44:41;3.85;;;1.15;;
78787;SDS011;68131;52.508;5.502;2023-08-17T06:47:11;0.63;;;0.50;;
78787;SDS011;68131;52.508;5.502;2023-08-17T06:49:40;2.05;;;0.80;;
78787;SDS011;68131;52.508;5.502;2023-08-17T06:52:09;1.15;;;0.73;;
78787;SDS011;68131;52.508;5.502;2023-08-17T06:54:38;3.53;;;1.10;;
78787;SDS011;68131;52.508;5.502;2023-08-17T06:57:08;0.50;;;0.50;;
78787;SDS011;68131;52.508;5.502;2023-08-17T06:59:39;1.73;;;0.73;;
78787;SDS011;68131;52.508;5.502;2023-08-17T07:02:11;1.65;;;1.00;;
78787;SDS011;68131;52.508;5.502;2023-08-17T07:04:40;1.00;;;0.80;;
78787;SDS011;68131;52.508;5.502;2023-08-17T07:07:09;1.27;;;1.00;;
78787;SDS011;68131;52.508;5.502;2023-08-17T07:09:39;0.80;;;0.70;;
78787;SDS011;68131;52.508;5.502;2023-08-17T07:12:09;3.10;;;1.10;;
78787;SDS011;68131;52.508;5.502;2023-08-17T07:14:40;1.30;;;0.70;;
78787;SDS011;68131;52.508;5.502;2023-08-17T07:17:10;2.20;;;1.80;;
78787;SDS011;68131;52.508;5.502;2023-08-17T07:19:39;1.25;;;0.85;;
78787;SDS011;68131;52.508;5.502;2023-08-17T07:22:08;6.03;;;4.35;;
78787;SDS011;68131;52.508;5.502;2023-08-17T07:24:37;0.95;;;0.63;;
78787;SDS011;68131;52.508;5.502;2023-08-17T07:27:06;3.63;;;1.05;;
78787;SDS011;68131;52.508;5.502;2023-08-17T07:29:36;2.85;;;0.75;;
78787;SDS011;68131;52.508;5.502;2023-08-17T07:32:08;0.95;;;0.63;;
78787;SDS011;68131;52.508;5.502;2023-08-17T07:34:38;1.27;;;0.60;;
78787;SDS011;68131;52.508;5.502;2023-08-17T07:37:07;0.98;;;0.65;;
78787;SDS011;68131;52.508;5.502;2023-08-17T07:39:36;2.67;;;0.75;;
78787;SDS011;68131;52.508;5.502;2023-08-17T07:42:05;2.20;;;1.05;;
78787;SDS011;68131;52.508;5.502;2023-08-17T07:44:35;2.15;;;1.48;;
78787;SDS011;68131;52.508;5.502;2023-08-17T07:47:08;0.45;;;0.43;;
78787;SDS011;68131;52.508;5.502;2023-08-17T07:49:37;0.80;;;0.60;;
78787;SDS011;68131;52.508;5.502;2023-08-17T07:52:09;1.17;;;1.05;;
78787;SDS011;68131;52.508;5.502;2023-08-17T07:54:38;1.20;;;0.98;;
78787;SDS011;68131;52.508;5.502;2023-08-17T07:57:07;1.25;;;0.60;;
78787;SDS011;68131;52.508;5.502;2023-08-17T07:59:36;2.85;;;1.58;;
78787;SDS011;68131;52.508;5.502;2023-08-17T08:02:08;0.65;;;0.63;;
78787;SDS011;68131;52.508;5.502;2023-08-17T08:04:37;1.30;;;0.80;;
78787;SDS011;68131;52.508;5.502;2023-08-17T08:07:06;0.85;;;0.63;;
78787;SDS011;68131;52.508;5.502;2023-08-17T08:09:36;3.67;;;1.08;;
78787;SDS011;68131;52.508;5.502;2023-08-17T08:12:05;1.85;;;1.20;;
78787;SDS011;68131;52.508;5.502;2023-08-17T08:14:35;1.38;;;0.80;;
78787;SDS011;68131;52.508;5.502;2023-08-17T08:17:04;1.88;;;0.90;;
78787;SDS011;68131;52.508;5.502;2023-08-17T08:19:36;1.13;;;0.63;;
78787;SDS011;68131;52.508;5.502;2023-08-17T08:22:06;3.55;;;0.98;;
78787;SDS011;68131;52.508;5.502;2023-08-17T08:24:35;2.42;;;1.08;;
78787;SDS011;68131;52.508;5.502;2023-08-17T08:27:06;1.65;;;0.90;;
78787;SDS011;68131;52.508;5.502;2023-08-17T08:29:35;2.38;;;0.80;;
78787;SDS011;68131;52.508;5.502;2023-08-17T08:32:10;6.07;;;1.45;;
78787;SDS011;68131;52.508;5.502;2023-08-17T08:34:39;1.48;;;0.73;;
78787;SDS011;68131;52.508;5.502;2023-08-17T08:37:09;2.45;;;1.00;;
78787;SDS011;68131;52.508;5.502;2023-08-17T08:39:47;0.93;;;0.60;;
78787;SDS011;68131;52.508;5.502;2023-08-17T08:42:18;3.72;;;1.13;;
78787;SDS011;68131;52.508;5.502;2023-08-17T08:44:49;3.00;;;1.30;;
78787;SDS011;68131;52.508;5.502;2023-08-17T08:47:21;3.60;;;1.15;;
78787;SDS011;68131;52.508;5.502;2023-08-17T08:49:56;1.40;;;0.88;;
78787;SDS011;68131;52.508;5.502;2023-08-17T08:52:32;3.33;;;0.98;;
78787;SDS011;68131;52.508;5.502;2023-08-17T08:55:10;2.83;;;0.70;;
78787;SDS011;68131;52.508;5.502;2023-08-17T08:57:43;0.90;;;0.60;;
78787;SDS011;68131;52.508;5.502;2023-08-17T09:00:13;1.05;;;0.73;;
78787;SDS011;68131;52.508;5.502;2023-08-17T09:02:45;0.68;;;0.60;;
78787;SDS011;68131;52.508;5.502;2023-08-17T09:05:15;3.17;;;0.80;;
78787;SDS011;68131;52.508;5.502;2023-08-17T09:07:45;1.73;;;0.50;;
78787;SDS011;68131;52.508;5.502;2023-08-17T09:10:16;3.97;;;0.80;;
78787;SDS011;68131;52.508;5.502;2023-08-17T09:12:46;1.52;;;0.40;;
78787;SDS011;68131;52.508;5.502;2023-08-17T09:15:15;0.85;;;0.73;;
78787;SDS011;68131;52.508;5.502;2023-08-17T09:17:47;1.08;;;0.55;;
78787;SDS011;68131;52.508;5.502;2023-08-17T09:23:09;2.25;;;0.70;;
78787;SDS011;68131;52.508;5.502;2023-08-17T09:25:40;1.63;;;0.63;;
78787;SDS011;68131;52.508;5.502;2023-08-17T09:28:10;4.10;;;0.80;;
78787;SDS011;68131;52.508;5.502;2023-08-17T09:30:51;3.22;;;0.77;;
78787;SDS011;68131;52.508;5.502;2023-08-17T09:33:24;0.70;;;0.65;;
78787;SDS011;68131;52.508;5.502;2023-08-17T09:35:55;2.28;;;1.02;;
78787;SDS011;68131;52.508;5.502;2023-08-17T09:38:25;2.55;;;1.15;;
78787;SDS011;68131;52.508;5.502;2023-08-17T09:40:52;2.70;;;0.63;;
78787;SDS011;68131;52.508;5.502;2023-08-17T09:43:22;0.80;;;0.60;;
78787;SDS011;68131;52.508;5.502;2023-08-17T09:45:53;1.30;;;1.08;;
78787;SDS011;68131;52.508;5.502;2023-08-17T09:48:26;0.75;;;0.57;;
78787;SDS011;68131;52.508;5.502;2023-08-17T09:50:56;4.20;;;0.45;;
78787;SDS011;68131;52.508;5.502;2023-08-17T09:53:27;0.85;;;0.65;;
78787;SDS011;68131;52.508;5.502;2023-08-17T09:55:57;1.48;;;0.50;;
78787;SDS011;68131;52.508;5.502;2023-08-17T09:58:28;0.88;;;0.47;;
78787;SDS011;68131;52.508;5.502;2023-08-17T10:00:57;1.60;;;0.82;;
78787;SDS011;68131;52.508;5.502;2023-08-17T10:03:32;1.73;;;0.68;;
78787;SDS011;68131;52.508;5.502;2023-08-17T10:06:04;0.60;;;0.40;;
78787;SDS011;68131;52.508;5.502;2023-08-17T10:08:36;0.90;;;0.40;;
78787;SDS011;68131;52.508;5.502;2023-08-17T10:11:10;0.50;;;0.45;;
78787;SDS011;68131;52.508;5.502;2023-08-17T10:13:42;4.72;;;0.82;;
78787;SDS011;68131;52.508;5.502;2023-08-17T10:16:16;0.60;;;0.60;;
78787;SDS011;68131;52.508;5.502;2023-08-17T10:18:56;1.90;;;0.43;;
78787;SDS011;68131;52.508;5.502;2023-08-17T10:21:32;0.95;;;0.30;;
78787;SDS011;68131;52.508;5.502;2023-08-17T10:24:06;0.93;;;0.50;;
78787;SDS011;68131;52.508;5.502;2023-08-17T10:26:36;1.05;;;0.47;;
78787;SDS011;68131;52.508;5.502;2023-08-17T10:29:05;1.67;;;0.52;;
78787;SDS011;68131;52.508;5.502;2023-08-17T10:31:37;0.73;;;0.32;;
78787;SDS011;68131;52.508;5.502;2023-08-17T10:34:09;0.65;;;0.60;;
78787;SDS011;68131;52.508;5.502;2023-08-17T10:36:39;1.08;;;0.68;;
78787;SDS011;68131;52.508;5.502;2023-08-17T10:39:18;2.05;;;0.57;;
78787;SDS011;68131;52.508;5.502;2023-08-17T10:41:50;2.42;;;0.57;;
78787;SDS011;68131;52.508;5.502;2023-08-17T10:49:58;0.73;;;0.63;;
78787;SDS011;68131;52.508;5.502;2023-08-17T10:52:29;1.02;;;0.82;;
78787;SDS011;68131;52.508;5.502;2023-08-17T10:54:59;1.23;;;0.90;;
78787;SDS011;68131;52.508;5.502;2023-08-17T10:57:31;5.15;;;1.23;;
78787;SDS011;68131;52.508;5.502;2023-08-17T11:02:56;1.63;;;0.68;;
78787;SDS011;68131;52.508;5.502;2023-08-17T11:05:42;4.20;;;0.77;;
78787;SDS011;68131;52.508;5.502;2023-08-17T11:08:19;2.13;;;1.08;;
78787;SDS011;68131;52.508;5.502;2023-08-17T11:11:01;4.35;;;0.80;;
78787;SDS011;68131;52.508;5.502;2023-08-17T11:13:32;2.80;;;0.90;;
78787;SDS011;68131;52.508;5.502;2023-08-17T11:16:04;3.92;;;1.17;;
78787;SDS011;68131;52.508;5.502;2023-08-17T11:18:34;2.40;;;0.95;;
78787;SDS011;68131;52.508;5.502;2023-08-17T11:21:06;1.45;;;1.00;;
78787;SDS011;68131;52.508;5.502;2023-08-17T11:23:36;1.95;;;0.95;;
78787;SDS011;68131;52.508;5.502;2023-08-17T11:26:06;1.13;;;0.88;;
78787;SDS011;68131;52.508;5.502;2023-08-17T11:28:36;1.58;;;0.57;;
78787;SDS011;68131;52.508;5.502;2023-08-17T11:31:07;0.93;;;0.75;;
78787;SDS011;68131;52.508;5.502;2023-08-17T11:33:37;1.55;;;0.63;;
78787;SDS011;68131;52.508;5.502;2023-08-17T11:36:10;1.38;;;0.90;;
78787;SDS011;68131;52.508;5.502;2023-08-17T11:38:40;2.72;;;0.90;;
78787;SDS011;68131;52.508;5.502;2023-08-17T11:41:10;6.43;;;1.08;;
78787;SDS011;68131;52.508;5.502;2023-08-17T11:43:42;2.22;;;0.90;;
78787;SDS011;68131;52.508;5.502;2023-08-17T11:46:11;0.93;;;0.60;;
78787;SDS011;68131;52.508;5.502;2023-08-17T11:48:40;1.40;;;0.95;;
78787;SDS011;68131;52.508;5.502;2023-08-17T11:51:13;2.45;;;0.88;;
78787;SDS011;68131;52.508;5.502;2023-08-17T11:53:42;2.92;;;1.23;;
78787;SDS011;68131;52.508;5.502;2023-08-17T11:56:11;2.05;;;1.05;;
78787;SDS011;68131;52.508;5.502;2023-08-17T11:58:40;0.90;;;0.85;;
78787;SDS011;68131;52.508;5.502;2023-08-17T12:01:10;1.52;;;1.00;;
78787;SDS011;68131;52.508;5.502;2023-08-17T12:03:41;1.38;;;0.80;;
78787;SDS011;68131;52.508;5.502;2023-08-17T12:06:13;3.45;;;0.93;;
78787;SDS011;68131;52.508;5.502;2023-08-17T12:11:15;1.90;;;0.65;;
78787;SDS011;68131;52.508;5.502;2023-08-17T12:13:48;2.53;;;1.00;;
78787;SDS011;68131;52.508;5.502;2023-08-17T12:16:19;1.35;;;0.60;;
78787;SDS011;68131;52.508;5.502;2023-08-17T12:18:49;0.90;;;0.73;;
78787;SDS011;68131;52.508;5.502;2023-08-17T12:21:22;2.25;;;0.95;;
78787;SDS011;68131;52.508;5.502;2023-08-17T12:23:52;3.72;;;1.15;;
78787;SDS011;68131;52.508;5.502;2023-08-17T12:26:23;1.15;;;0.88;;
78787;SDS011;68131;52.508;5.502;2023-08-17T12:28:54;3.08;;;0.90;;
78787;SDS011;68131;52.508;5.502;2023-08-17T12:31:24;2.15;;;1.00;;
78787;SDS011;68131;52.508;5.502;2023-08-17T12:33:54;1.35;;;1.02;;
78787;SDS011;68131;52.508;5.502;2023-08-17T12:36:26;1.27;;;0.77;;
78787;SDS011;68131;52.508;5.502;2023-08-17T12:38:55;0.88;;;0.63;;
78787;SDS011;68131;52.508;5.502;2023-08-17T12:41:24;1.58;;;1.02;;
78787;SDS011;68131;52.508;5.502;2023-08-17T12:43:53;1.38;;;0.90;;
78787;SDS011;68131;52.508;5.502;2023-08-17T12:46:24;1.95;;;0.82;;
78787;SDS011;68131;52.508;5.502;2023-08-17T12:48:58;0.65;;;0.65;;
78787;SDS011;68131;52.508;5.502;2023-08-17T12:51:30;1.98;;;1.15;;
78787;SDS011;68131;52.508;5.502;2023-08-17T12:53:59;1.45;;;0.90;;
78787;SDS011;68131;52.508;5.502;2023-08-17T12:56:28;1.52;;;0.80;;
78787;SDS011;68131;52.508;5.502;2023-08-17T12:58:58;1.95;;;1.58;;
78787;SDS011;68131;52.508;5.502;2023-08-17T13:01:29;1.25;;;0.80;;
78787;SDS011;68131;52.508;5.502;2023-08-17T13:03:58;2.25;;;0.80;;
78787;SDS011;68131;52.508;5.502;2023-08-17T13:06:30;2.70;;;1.25;;
78787;SDS011;68131;52.508;5.502;2023-08-17T13:08:59;2.38;;;1.55;;
78787;SDS011;68131;52.508;5.502;2023-08-17T13:11:29;1.33;;;0.88;;
78787;SDS011;68131;52.508;5.502;2023-08-17T13:13:58;5.50;;;0.90;;
78787;SDS011;68131;52.508;5.502;2023-08-17T13:16:27;1.75;;;1.13;;
78787;SDS011;68131;52.508;5.502;2023-08-17T13:18:57;1.30;;;0.63;;
78787;SDS011;68131;52.508;5.502;2023-08-17T13:21:26;1.70;;;0.80;;
78787;SDS011;68131;52.508;5.502;2023-08-17T13:23:58;2.65;;;0.88;;
78787;SDS011;68131;52.508;5.502;2023-08-17T13:26:29;1.35;;;0.80;;
78787;SDS011;68131;52.508;5.502;2023-08-17T13:28:58;1.15;;;0.80;;
78787;SDS011;68131;52.508;5.502;2023-08-17T13:31:28;1.55;;;1.20;;
78787;SDS011;68131;52.508;5.502;2023-08-17T13:33:58;2.22;;;1.00;;
78787;SDS011;68131;52.508;5.502;2023-08-17T13:36:27;1.73;;;0.95;;
78787;SDS011;68131;52.508;5.502;2023-08-17T13:38:59;1.17;;;0.70;;
78787;SDS011;68131;52.508;5.502;2023-08-17T13:41:28;1.08;;;0.90;;
78787;SDS011;68131;52.508;5.502;2023-08-17T13:43:58;1.45;;;0.95;;
78787;SDS011;68131;52.508;5.502;2023-08-17T13:46:28;2.40;;;0.93;;
78787;SDS011;68131;52.508;5.502;2023-08-17T13:48:57;1.45;;;1.15;;
78787;SDS011;68131;52.508;5.502;2023-08-17T13:51:26;1.52;;;1.10;;
78787;SDS011;68131;52.508;5.502;2023-08-17T13:53:55;3.40;;;0.95;;
78787;SDS011;68131;52.508;5.502;2023-08-17T13:56:27;1.55;;;1.08;;
78787;SDS011;68131;52.508;5.502;2023-08-17T13:58:56;0.88;;;0.82;;
78787;SDS011;68131;52.508;5.502;2023-08-17T14:01:26;2.00;;;1.25;;
78787;SDS011;68131;52.508;5.502;2023-08-17T14:03:55;1.15;;;1.05;;
78787;SDS011;68131;52.508;5.502;2023-08-17T14:06:24;1.00;;;0.85;;
78787;SDS011;68131;52.508;5.502;2023-08-17T14:08:53;2.35;;;1.30;;
78787;SDS011;68131;52.508;5.502;2023-08-17T14:11:25;2.00;;;1.02;;
78787;SDS011;68131;52.508;5.502;2023-08-17T14:13:54;1.00;;;0.90;;
78787;SDS011;68131;52.508;5.502;2023-08-17T14:16:23;1.27;;;1.05;;
78787;SDS011;68131;52.508;5.502;2023-08-17T14:18:53;1.25;;;1.13;;
78787;SDS011;68131;52.508;5.502;2023-08-17T14:21:23;1.35;;;1.15;;
78787;SDS011;68131;52.508;5.502;2023-08-17T14:23:52;2.03;;;1.20;;
78787;SDS011;68131;52.508;5.502;2023-08-17T14:26:21;1.58;;;0.90;;
78787;SDS011;68131;52.508;5.502;2023-08-17T14:28:53;2.40;;;1.45;;
78787;SDS011;68131;52.508;5.502;2023-08-17T14:31:22;1.40;;;1.30;;
78787;SDS011;68131;52.508;5.502;2023-08-17T14:33:51;2.67;;;1.10;;
78787;SDS011;68131;52.508;5.502;2023-08-17T14:36:20;1.55;;;1.30;;
78787;SDS011;68131;52.508;5.502;2023-08-17T14:38:50;1.38;;;1.25;;
78787;SDS011;68131;52.508;5.502;2023-08-17T14:41:19;1.35;;;0.95;;
78787;SDS011;68131;52.508;5.502;2023-08-17T14:43:48;3.70;;;1.65;;
78787;SDS011;68131;52.508;5.502;2023-08-17T14:46:20;4.78;;;1.92;;
78787;SDS011;68131;52.508;5.502;2023-08-17T14:48:49;78.60;;;36.45;;
78787;SDS011;68131;52.508;5.502;2023-08-17T14:51:19;169.57;;;72.30;;
78787;SDS011;68131;52.508;5.502;2023-08-17T14:53:48;108.22;;;43.70;;
78787;SDS011;68131;52.508;5.502;2023-08-17T14:56:19;203.15;;;92.18;;
78787;SDS011;68131;52.508;5.502;2023-08-17T14:58:49;329.88;;;179.45;;
78787;SDS011;68131;52.508;5.502;2023-08-17T15:01:21;59.13;;;33.13;;
78787;SDS011;68131;52.508;5.502;2023-08-17T15:03:50;46.03;;;27.52;;
78787;SDS011;68131;52.508;5.502;2023-08-17T15:06:19;55.67;;;28.70;;
78787;SDS011;68131;52.508;5.502;2023-08-17T15:08:50;15.60;;;9.30;;
78787;SDS011;68131;52.508;5.502;2023-08-17T15:11:19;9.73;;;5.28;;
78787;SDS011;68131;52.508;5.502;2023-08-17T15:13:48;10.93;;;4.90;;
78787;SDS011;68131;52.508;5.502;2023-08-17T15:16:17;8.73;;;3.97;;
78787;SDS011;68131;52.508;5.502;2023-08-17T15:18:53;4.75;;;2.67;;
78787;SDS011;68131;52.508;5.502;2023-08-17T15:21:25;6.35;;;3.42;;